createdAt,value
2023-08-20T00:00:21.479Z,74349.47
2023-08-20T00:02:52.726Z,74349.47
2023-08-20T00:05:20.409Z,74349.47
2023-08-20T00:07:47.380Z,74343.28
2023-08-20T00:10:14.189Z,74349.47
2023-08-20T00:12:40.879Z,74345.34
2023-08-20T00:15:08.174Z,74341.22
2023-08-20T00:17:39.873Z,74353.63
2023-08-20T00:20:11.529Z,74345.34
2023-08-20T00:22:46.002Z,74341.22
2023-08-20T00:25:14.618Z,74343.28
2023-08-20T00:27:42.230Z,74345.34
2023-08-20T00:30:10.192Z,74341.22
2023-08-20T00:32:37.706Z,74349.47
2023-08-20T00:35:05.531Z,74347.41
2023-08-20T00:37:32.933Z,74343.28
2023-08-20T00:40:00.617Z,74345.34
2023-08-20T00:42:27.477Z,74345.34
2023-08-20T00:44:54.528Z,74347.41
2023-08-20T00:47:22.155Z,74353.63
2023-08-20T00:49:50.056Z,74351.53
2023-08-20T00:52:19.195Z,74353.63
2023-08-20T00:54:47.417Z,74353.63
2023-08-20T00:57:19.554Z,74361.88
2023-08-20T00:59:50.515Z,74380.47
2023-08-20T01:02:19.350Z,74392.88
2023-08-20T01:04:49.456Z,74403.22
2023-08-20T01:07:16.341Z,74397.03
2023-08-20T01:09:58.793Z,74390.81
2023-08-20T01:12:25.919Z,74394.94
2023-08-20T01:14:52.673Z,74384.63
2023-08-20T01:17:19.571Z,74390.81
2023-08-20T01:19:47.592Z,74397.03
2023-08-20T01:22:38.998Z,74394.94
2023-08-20T01:25:39.547Z,74403.22
2023-08-20T01:28:32.496Z,74403.22
2023-08-20T01:31:02.337Z,74394.94
2023-08-20T01:33:29.408Z,74394.94
2023-08-20T01:35:56.606Z,74394.94
2023-08-20T01:38:23.622Z,74407.34
2023-08-20T01:40:51.044Z,74419.75
2023-08-20T01:43:17.822Z,74432.16
2023-08-20T01:45:44.758Z,74444.56
2023-08-20T01:48:11.692Z,74456.97
2023-08-20T01:50:38.509Z,74456.97
2023-08-20T01:53:05.375Z,74454.91
2023-08-20T01:55:33.068Z,74459.03
2023-08-20T01:58:00.307Z,74465.22
2023-08-20T02:00:27.782Z,74459.03
2023-08-20T02:02:54.750Z,74469.38
2023-08-20T02:05:21.775Z,74481.78
2023-08-20T02:07:49.007Z,74490.03
2023-08-20T02:10:15.907Z,74483.84
2023-08-20T02:12:42.818Z,74490.03
2023-08-20T02:15:12.178Z,74492.09
2023-08-20T02:17:39.194Z,74494.16
2023-08-20T02:20:06.785Z,74504.50
2023-08-20T02:22:35.598Z,74516.91
2023-08-20T02:25:02.613Z,74523.09
2023-08-20T02:27:29.460Z,74512.78
2023-08-20T02:29:56.166Z,74514.84
2023-08-20T02:32:22.894Z,74521.03
2023-08-20T02:34:53.158Z,74531.38
2023-08-20T02:37:20.120Z,74535.50
2023-08-20T02:39:46.915Z,74531.38
2023-08-20T02:42:13.693Z,74535.50
2023-08-20T02:44:40.566Z,74535.50
2023-08-20T02:47:07.625Z,74545.84
2023-08-20T02:49:34.362Z,74547.91
2023-08-20T02:52:01.138Z,74554.13
2023-08-20T02:54:28.088Z,74543.78
2023-08-20T02:56:55.007Z,74541.72
2023-08-20T02:59:21.833Z,74543.78
2023-08-20T03:01:48.720Z,74539.66
2023-08-20T03:04:18.428Z,74543.78
2023-08-20T03:06:45.273Z,74549.97
2023-08-20T03:09:12.199Z,74552.03
2023-08-20T03:11:38.991Z,74545.84
2023-08-20T03:14:05.876Z,74547.91
2023-08-20T03:16:32.599Z,74554.13
2023-08-20T03:18:59.247Z,74547.91
2023-08-20T03:21:26.017Z,74560.31
2023-08-20T03:23:52.793Z,74549.97
2023-08-20T03:26:19.765Z,74562.38
2023-08-20T03:28:46.521Z,74566.53
2023-08-20T03:31:13.443Z,74564.44
2023-08-20T03:33:40.338Z,74572.72
2023-08-20T03:36:09.728Z,74566.53
2023-08-20T03:38:39.416Z,74587.19
2023-08-20T03:41:06.435Z,74585.13
2023-08-20T03:43:33.228Z,74589.25
2023-08-20T03:46:00.041Z,74589.25
2023-08-20T03:48:27.010Z,74593.38
2023-08-20T03:50:53.849Z,74607.84
2023-08-20T03:53:20.603Z,74612.00
2023-08-20T03:55:50.913Z,74622.34
2023-08-20T03:58:18.341Z,74626.47
2023-08-20T04:00:45.325Z,74618.19
2023-08-20T04:03:12.267Z,74622.34
2023-08-20T04:05:39.566Z,74614.06
2023-08-20T04:08:07.367Z,74624.41
2023-08-20T04:10:34.596Z,74622.34
2023-08-20T04:13:01.490Z,74618.19
2023-08-20T04:15:28.773Z,74609.94
2023-08-20T04:17:55.893Z,74603.72
2023-08-20T04:20:22.805Z,74605.78
2023-08-20T04:22:50.187Z,74612.00
2023-08-20T04:25:17.331Z,74609.94
2023-08-20T04:27:44.136Z,74601.66
2023-08-20T04:30:11.901Z,74591.31
2023-08-20T04:32:38.699Z,74572.72
2023-08-20T04:35:05.877Z,74549.97
2023-08-20T04:37:32.832Z,74533.44
2023-08-20T04:40:02.314Z,74535.50
2023-08-20T04:42:29.137Z,74541.72
2023-08-20T04:44:56.000Z,74535.50
2023-08-20T04:47:23.018Z,74535.50
2023-08-20T04:49:49.969Z,74529.31
2023-08-20T04:52:16.812Z,74525.19
2023-08-20T04:54:43.647Z,74502.44
2023-08-20T04:57:10.567Z,74490.03
2023-08-20T04:59:37.454Z,74477.63
2023-08-20T05:02:04.296Z,74469.38
2023-08-20T05:04:31.110Z,74454.91
2023-08-20T05:07:01.258Z,74440.44
2023-08-20T05:09:28.350Z,74423.88
2023-08-20T05:11:55.314Z,74405.28
2023-08-20T05:14:22.199Z,74392.88
2023-08-20T05:16:49.155Z,74370.16
2023-08-20T05:19:16.197Z,74347.41
2023-08-20T05:21:43.130Z,74308.13
2023-08-20T05:24:12.919Z,74281.28
2023-08-20T05:26:39.873Z,74248.19
2023-08-20T05:29:09.636Z,74211.00
2023-08-20T05:31:36.426Z,74186.19
2023-08-20T05:34:05.695Z,74169.66
2023-08-20T05:36:35.563Z,74151.06
2023-08-20T05:39:02.425Z,74130.38
2023-08-20T05:41:29.404Z,74101.44
2023-08-20T05:43:56.403Z,74066.31
2023-08-20T05:46:23.279Z,74033.25
2023-08-20T05:48:50.039Z,74006.38
2023-08-20T05:51:20.091Z,73979.50
2023-08-20T05:53:49.180Z,73950.56
2023-08-20T05:56:16.148Z,73936.09
2023-08-20T05:58:42.949Z,73919.56
2023-08-20T06:01:09.705Z,73911.31
2023-08-20T06:03:36.645Z,73888.56
2023-08-20T06:06:06.009Z,73865.84
2023-08-20T06:08:34.299Z,73838.97
2023-08-20T06:11:06.262Z,73830.69
2023-08-20T06:13:33.128Z,73810.03
2023-08-20T06:15:59.963Z,73795.56
2023-08-20T06:18:26.829Z,73785.25
2023-08-20T06:20:53.787Z,73779.03
2023-08-20T06:23:36.685Z,73756.31
2023-08-20T06:26:07.500Z,73766.63
2023-08-20T06:28:34.223Z,73754.25
2023-08-20T06:31:00.983Z,73733.56
2023-08-20T06:33:27.670Z,73729.44
2023-08-20T06:35:54.477Z,73723.22
2023-08-20T06:38:21.285Z,73721.16
2023-08-20T06:40:48.870Z,73733.56
2023-08-20T06:43:15.629Z,73721.16
2023-08-20T06:45:42.484Z,73698.44
2023-08-20T06:48:09.308Z,73696.38
2023-08-20T06:50:37.823Z,73712.91
2023-08-20T06:53:06.685Z,73741.84
2023-08-20T06:55:33.402Z,73762.50
2023-08-20T06:58:00.179Z,73776.97
2023-08-20T07:00:27.058Z,73787.31
2023-08-20T07:02:53.824Z,73772.84
2023-08-20T07:05:20.789Z,73762.50
2023-08-20T07:07:47.825Z,73737.69
2023-08-20T07:10:14.595Z,73723.22
2023-08-20T07:12:41.290Z,73708.78
2023-08-20T07:15:08.581Z,73745.97
2023-08-20T07:17:35.539Z,73737.69
2023-08-20T07:20:02.528Z,73712.91
2023-08-20T07:22:29.230Z,73700.50
2023-08-20T07:24:56.031Z,73681.91
2023-08-20T07:27:22.802Z,73659.16
2023-08-20T07:29:49.536Z,73648.84
2023-08-20T07:32:16.254Z,73659.16
2023-08-20T07:34:43.057Z,73661.25
2023-08-20T07:37:09.850Z,73655.03
2023-08-20T07:39:36.775Z,73621.97
2023-08-20T07:42:03.812Z,73607.50
2023-08-20T07:44:30.621Z,73646.78
2023-08-20T07:46:57.437Z,73624.03
2023-08-20T07:49:24.106Z,73613.72
2023-08-20T07:51:53.496Z,73607.50
2023-08-20T07:54:20.308Z,73593.03
2023-08-20T07:56:47.014Z,73574.44
2023-08-20T07:59:13.840Z,73557.91
2023-08-20T08:01:40.634Z,73551.72
2023-08-20T08:04:16.178Z,73539.31
2023-08-20T08:06:42.924Z,73514.50
2023-08-20T08:09:20.222Z,73510.38
2023-08-20T08:11:47.032Z,73500.03
2023-08-20T08:14:13.913Z,73489.72
2023-08-20T08:16:40.985Z,73506.25
2023-08-20T08:19:07.947Z,73485.56
2023-08-20T08:21:34.668Z,73469.03
2023-08-20T08:24:01.374Z,73460.78
2023-08-20T08:26:28.201Z,73464.91
2023-08-20T08:29:07.833Z,73456.66
2023-08-20T08:31:35.263Z,73444.25
2023-08-20T08:34:04.416Z,73435.97
2023-08-20T08:36:31.165Z,73435.97
2023-08-20T08:38:57.976Z,73446.31
2023-08-20T08:41:27.502Z,73423.59
2023-08-20T08:43:56.472Z,73419.44
2023-08-20T08:46:25.582Z,73407.06
2023-08-20T08:48:53.606Z,73458.72
2023-08-20T08:51:21.054Z,73433.91
2023-08-20T08:54:00.898Z,73417.38
2023-08-20T08:56:27.703Z,73394.66
2023-08-20T08:58:55.510Z,73382.25
2023-08-20T09:01:24.633Z,73367.78
2023-08-20T09:03:51.471Z,73369.84
2023-08-20T09:06:18.159Z,73357.47
2023-08-20T09:08:44.984Z,73367.78
2023-08-20T09:11:18.755Z,73365.72
2023-08-20T09:13:45.458Z,73361.59
2023-08-20T09:16:13.782Z,73367.78
2023-08-20T09:18:47.794Z,73357.47
2023-08-20T09:21:15.028Z,73340.94
2023-08-20T09:23:47.084Z,73343.00
2023-08-20T09:26:15.328Z,73336.78
2023-08-20T09:28:43.934Z,73322.31
2023-08-20T09:31:11.948Z,73314.06
2023-08-20T09:34:03.447Z,73299.59
2023-08-20T09:36:35.756Z,73287.19
2023-08-20T09:39:03.452Z,73264.47
2023-08-20T09:41:31.427Z,73274.81
2023-08-20T09:44:07.071Z,73252.06
2023-08-20T09:46:42.088Z,73243.81
2023-08-20T09:49:38.674Z,73254.13
2023-08-20T09:52:25.781Z,73237.59
2023-08-20T09:55:05.178Z,73221.06
2023-08-20T09:57:37.855Z,73214.88
2023-08-20T10:00:11.101Z,73229.34
2023-08-20T10:03:03.938Z,73202.47
2023-08-20T10:05:32.933Z,73208.69
2023-08-20T10:08:15.013Z,73196.28
2023-08-20T10:10:54.477Z,73177.69
2023-08-20T10:13:21.342Z,73165.28
2023-08-20T10:15:56.472Z,73154.94
2023-08-20T10:18:23.768Z,73142.56
2023-08-20T10:20:53.753Z,73188.00
2023-08-20T10:23:26.781Z,73179.75
2023-08-20T10:25:54.287Z,73179.75
2023-08-20T10:28:24.685Z,73212.81
2023-08-20T10:31:22.588Z,73229.34
2023-08-20T10:34:06.126Z,73287.19
2023-08-20T10:36:43.082Z,73330.59
2023-08-20T10:39:25.511Z,73312.00
2023-08-20T10:42:32.179Z,73281.00
2023-08-20T10:45:11.850Z,73256.19
2023-08-20T10:47:43.155Z,73287.19
2023-08-20T10:50:18.512Z,73287.19
2023-08-20T10:52:50.482Z,73272.72
2023-08-20T10:55:22.855Z,73272.72
2023-08-20T10:57:56.427Z,73268.59
2023-08-20T11:00:23.200Z,73237.59
2023-08-20T11:02:50.886Z,73241.75
2023-08-20T11:05:19.408Z,73241.75
2023-08-20T11:07:48.922Z,73250.00
2023-08-20T11:10:27.650Z,73212.81
2023-08-20T11:13:18.362Z,73196.28
2023-08-20T11:15:54.689Z,73229.34
2023-08-20T11:18:30.550Z,73221.06
2023-08-20T11:21:08.193Z,73225.19
2023-08-20T11:23:43.890Z,73200.41
2023-08-20T11:26:19.955Z,73163.22
2023-08-20T11:28:48.522Z,73159.09
2023-08-20T11:31:18.893Z,73159.09
2023-08-20T11:33:45.846Z,73175.63
2023-08-20T11:36:12.990Z,73165.28
2023-08-20T11:38:39.739Z,73150.81
2023-08-20T11:41:06.472Z,73150.81
2023-08-20T11:43:33.830Z,73144.63
2023-08-20T11:46:00.612Z,73126.03
2023-08-20T11:48:27.303Z,73117.75
2023-08-20T11:50:58.086Z,73092.97
2023-08-20T11:53:24.908Z,73076.44
2023-08-20T11:55:51.801Z,73068.16
2023-08-20T11:58:20.760Z,73053.69
2023-08-20T12:00:50.535Z,73043.38
2023-08-20T12:03:19.359Z,73033.03
2023-08-20T12:05:46.092Z,73026.84
2023-08-20T12:08:18.086Z,73030.97
2023-08-20T12:10:45.156Z,73037.16
2023-08-20T12:13:12.175Z,73045.44
2023-08-20T12:15:38.960Z,73064.03
2023-08-20T12:18:06.741Z,73041.31
2023-08-20T12:20:35.779Z,73018.56
2023-08-20T12:23:17.753Z,73068.16
2023-08-20T12:26:02.671Z,73053.69
2023-08-20T12:28:30.916Z,73070.22
2023-08-20T12:30:57.760Z,73084.69
2023-08-20T12:33:25.179Z,73072.28
2023-08-20T12:35:55.954Z,73061.97
2023-08-20T12:38:23.186Z,73097.09
2023-08-20T12:41:10.344Z,73109.50
2023-08-20T12:43:37.365Z,73101.22
2023-08-20T12:46:04.840Z,73105.34
2023-08-20T12:48:31.627Z,73088.81
2023-08-20T12:50:58.591Z,73088.81
2023-08-20T12:53:25.556Z,73084.69
2023-08-20T12:55:52.236Z,73072.28
2023-08-20T12:58:18.961Z,73070.22
2023-08-20T13:00:45.736Z,73047.50
2023-08-20T13:03:12.775Z,73035.09
2023-08-20T13:05:39.817Z,73022.69
2023-08-20T13:08:07.416Z,73010.31
2023-08-20T13:10:54.543Z,72989.66
2023-08-20T13:13:23.693Z,72985.50
2023-08-20T13:16:12.044Z,72993.78
2023-08-20T13:18:38.947Z,73010.31
2023-08-20T13:21:05.650Z,73002.03
2023-08-20T13:23:32.300Z,72991.72
2023-08-20T13:25:58.952Z,72985.50
2023-08-20T13:28:25.618Z,73014.44
2023-08-20T13:30:52.346Z,72999.97
2023-08-20T13:33:18.999Z,73014.44
2023-08-20T13:35:45.907Z,73010.31
2023-08-20T13:38:13.000Z,73008.25
2023-08-20T13:40:39.657Z,73012.38
2023-08-20T13:43:10.573Z,73014.44
2023-08-20T13:45:41.499Z,73024.78
2023-08-20T13:48:13.262Z,73016.50
2023-08-20T13:50:41.062Z,73030.97
2023-08-20T13:53:07.950Z,73033.03
2023-08-20T13:56:17.252Z,73028.91
2023-08-20T13:58:49.592Z,73014.44
2023-08-20T14:01:17.837Z,73020.63
2023-08-20T14:03:47.698Z,73028.91
2023-08-20T14:06:14.484Z,73033.03
2023-08-20T14:08:45.521Z,73037.16
2023-08-20T14:11:13.081Z,73035.09
2023-08-20T14:13:44.249Z,73035.09
2023-08-20T14:16:42.184Z,73035.09
2023-08-20T14:19:08.827Z,73018.56
2023-08-20T14:21:35.563Z,73014.44
2023-08-20T14:24:02.166Z,73002.03
2023-08-20T14:26:28.818Z,73028.91
2023-08-20T14:28:55.524Z,73012.38
2023-08-20T14:31:39.051Z,73039.22
2023-08-20T14:34:06.349Z,73022.69
2023-08-20T14:36:33.096Z,73006.16
2023-08-20T14:38:59.733Z,73022.69
2023-08-20T14:41:26.467Z,73016.50
2023-08-20T14:43:53.154Z,73018.56
2023-08-20T14:46:19.825Z,73008.25
2023-08-20T14:48:47.005Z,73002.03
2023-08-20T14:51:14.002Z,73018.56
2023-08-20T14:53:51.650Z,72997.91
2023-08-20T14:56:18.320Z,72999.97
2023-08-20T14:58:45.960Z,73006.16
2023-08-20T15:01:23.591Z,73039.22
2023-08-20T15:03:50.297Z,73028.91
2023-08-20T15:06:16.922Z,73033.03
2023-08-20T15:08:43.873Z,73035.09
2023-08-20T15:11:10.540Z,73037.16
2023-08-20T15:13:37.271Z,73018.56
2023-08-20T15:16:04.718Z,73018.56
2023-08-20T15:19:02.201Z,73008.25
2023-08-20T15:21:28.987Z,73010.31
2023-08-20T15:23:55.637Z,73014.44
2023-08-20T15:26:27.241Z,73018.56
2023-08-20T15:28:54.057Z,73014.44
2023-08-20T15:31:22.819Z,73012.38
2023-08-20T15:34:00.096Z,73039.22
2023-08-20T15:36:34.256Z,73041.31
2023-08-20T15:39:01.073Z,73047.50
2023-08-20T15:41:29.390Z,73039.22
2023-08-20T15:44:10.301Z,73028.91
2023-08-20T15:46:45.735Z,73030.97
2023-08-20T15:49:12.430Z,73033.03
2023-08-20T15:51:39.123Z,73043.38
2023-08-20T15:54:06.681Z,73047.50
2023-08-20T15:56:33.317Z,73061.97
2023-08-20T15:59:00.062Z,73055.75
2023-08-20T16:01:29.113Z,73053.69
2023-08-20T16:03:56.204Z,73051.63
2023-08-20T16:06:51.176Z,73043.38
2023-08-20T16:09:22.248Z,73055.75
2023-08-20T16:11:53.672Z,73074.34
2023-08-20T16:14:21.074Z,73072.28
2023-08-20T16:16:58.199Z,73078.50
2023-08-20T16:19:25.360Z,73090.91
2023-08-20T16:21:52.184Z,73082.63
2023-08-20T16:24:18.879Z,73097.09
2023-08-20T16:26:45.699Z,73105.34
2023-08-20T16:29:12.402Z,73105.34
2023-08-20T16:31:39.062Z,73105.34
2023-08-20T16:34:05.692Z,73115.69
2023-08-20T16:36:32.905Z,73115.69
2023-08-20T16:38:59.953Z,73115.69
2023-08-20T16:41:26.623Z,73128.09
2023-08-20T16:43:53.342Z,73132.22
2023-08-20T16:46:20.095Z,73142.56
2023-08-20T16:48:46.785Z,73154.94
2023-08-20T16:51:13.472Z,73200.41
2023-08-20T16:53:40.125Z,73212.81
2023-08-20T16:56:06.786Z,73212.81
2023-08-20T16:58:33.892Z,73214.88
2023-08-20T17:01:01.183Z,73235.53
2023-08-20T17:03:29.293Z,73262.41
2023-08-20T17:06:02.814Z,73272.72
2023-08-20T17:08:30.321Z,73293.41
2023-08-20T17:11:09.748Z,73328.53
2023-08-20T17:13:38.829Z,73347.13
2023-08-20T17:16:09.053Z,73369.84
2023-08-20T17:18:36.365Z,73380.19
2023-08-20T17:21:04.277Z,73394.66
2023-08-20T17:23:31.379Z,73419.44
2023-08-20T17:25:58.431Z,73427.72
2023-08-20T17:28:25.299Z,73460.78
2023-08-20T17:30:52.406Z,73481.44
2023-08-20T17:33:19.225Z,73510.38
2023-08-20T17:35:46.646Z,73531.03
2023-08-20T17:38:28.027Z,73543.44
2023-08-20T17:40:54.729Z,73559.97
2023-08-20T17:43:21.491Z,73568.25
2023-08-20T17:45:51.396Z,73590.97
2023-08-20T17:48:18.201Z,73607.50
2023-08-20T17:50:45.167Z,73621.97
2023-08-20T17:53:12.266Z,73634.38
2023-08-20T17:55:39.059Z,73646.78
2023-08-20T17:58:07.134Z,73661.25
2023-08-20T18:00:33.984Z,73671.56
2023-08-20T18:03:00.802Z,73683.97
2023-08-20T18:05:27.924Z,73704.63
2023-08-20T18:07:56.766Z,73710.84
2023-08-20T18:10:23.774Z,73725.31
2023-08-20T18:12:50.614Z,73733.56
2023-08-20T18:15:17.770Z,73750.09
2023-08-20T18:17:44.647Z,73766.63
2023-08-20T18:20:13.856Z,73770.78
2023-08-20T18:22:41.437Z,73793.50
2023-08-20T18:25:08.769Z,73812.09
2023-08-20T18:27:35.497Z,73830.69
2023-08-20T18:30:04.991Z,73830.69
2023-08-20T18:32:32.648Z,73834.84
2023-08-20T18:34:59.873Z,73849.31
2023-08-20T18:37:27.128Z,73853.44
2023-08-20T18:39:53.865Z,73878.25
2023-08-20T18:42:20.579Z,73896.84
2023-08-20T18:44:47.320Z,73898.91
2023-08-20T18:47:14.047Z,73909.25
2023-08-20T18:49:40.971Z,73921.63
2023-08-20T18:52:07.666Z,73923.72
2023-08-20T18:54:34.725Z,73931.97
2023-08-20T18:57:03.345Z,73936.09
2023-08-20T18:59:30.153Z,73942.31
2023-08-20T19:01:57.279Z,73958.84
2023-08-20T19:04:24.113Z,73973.31
2023-08-20T19:06:53.853Z,74006.38
2023-08-20T19:09:20.647Z,74039.44
2023-08-20T19:11:47.416Z,74062.19
2023-08-20T19:14:14.172Z,74074.59
2023-08-20T19:16:40.928Z,74082.84
2023-08-20T19:19:09.876Z,74080.78
2023-08-20T19:21:36.620Z,74091.13
2023-08-20T19:24:05.617Z,74091.13
2023-08-20T19:26:34.664Z,74105.59
2023-08-20T19:29:05.521Z,74109.72
2023-08-20T19:31:32.675Z,74097.31
2023-08-20T19:33:59.387Z,74111.78
2023-08-20T19:36:26.096Z,74120.06
2023-08-20T19:38:52.886Z,74126.25
2023-08-20T19:41:19.553Z,74122.13
2023-08-20T19:43:46.497Z,74120.06
2023-08-20T19:46:15.249Z,74122.13
2023-08-20T19:48:41.995Z,74134.53
2023-08-20T19:51:08.690Z,74155.19
2023-08-20T19:53:35.442Z,74175.84
2023-08-20T19:56:02.113Z,74186.19
2023-08-20T19:58:28.730Z,74194.47
2023-08-20T20:00:55.531Z,74196.53
2023-08-20T20:03:22.341Z,74200.66
2023-08-20T20:05:49.135Z,74215.13
2023-08-20T20:08:16.110Z,74211.00
2023-08-20T20:10:43.453Z,74204.78
2023-08-20T20:13:10.175Z,74206.88
2023-08-20T20:15:36.828Z,74204.78
2023-08-20T20:18:04.221Z,74221.31
2023-08-20T20:20:32.699Z,74221.31
2023-08-20T20:22:59.649Z,74244.06
2023-08-20T20:25:26.428Z,74266.81
2023-08-20T20:27:53.207Z,74256.47
2023-08-20T20:30:20.326Z,74264.72
2023-08-20T20:32:47.136Z,74258.53
2023-08-20T20:35:13.910Z,74270.94
2023-08-20T20:37:40.711Z,74279.22
2023-08-20T20:40:10.325Z,74275.06
2023-08-20T20:42:38.203Z,74268.88
2023-08-20T20:45:07.238Z,74279.22
2023-08-20T20:47:34.301Z,74266.81
2023-08-20T20:50:01.931Z,74266.81
2023-08-20T20:52:28.641Z,74258.53
2023-08-20T20:54:55.444Z,74262.66
2023-08-20T20:57:22.832Z,74264.72
2023-08-20T20:59:49.604Z,74266.81
2023-08-20T21:02:16.421Z,74273.00
2023-08-20T21:04:43.236Z,74287.47
2023-08-20T21:07:09.994Z,74308.13
2023-08-20T21:09:36.707Z,74316.41
2023-08-20T21:12:04.967Z,74308.13
2023-08-20T21:14:32.182Z,74304.00
2023-08-20T21:16:58.876Z,74312.28
2023-08-20T21:19:25.729Z,74306.06
2023-08-20T21:21:56.991Z,74306.06
2023-08-20T21:24:23.801Z,74304.00
2023-08-20T21:26:50.507Z,74306.06
2023-08-20T21:29:17.239Z,74316.41
2023-08-20T21:31:43.966Z,74324.69
2023-08-20T21:34:10.740Z,74332.94
2023-08-20T21:36:37.510Z,74324.69
2023-08-20T21:39:04.673Z,74326.75
2023-08-20T21:41:33.401Z,74332.94
2023-08-20T21:44:00.400Z,74337.06
2023-08-20T21:46:27.331Z,74339.16
2023-08-20T21:48:54.162Z,74337.06
2023-08-20T21:51:20.957Z,74337.06
2023-08-20T21:53:47.667Z,74343.28
2023-08-20T21:56:14.358Z,74341.22
2023-08-20T21:58:41.132Z,74351.53
2023-08-20T22:01:08.837Z,74345.34
2023-08-20T22:03:35.830Z,74349.47
2023-08-20T22:06:05.867Z,74353.63
2023-08-20T22:08:32.840Z,74341.22
2023-08-20T22:11:00.946Z,74351.53
2023-08-20T22:13:29.053Z,74357.75
2023-08-20T22:15:57.514Z,74363.94
2023-08-20T22:18:24.947Z,74366.00
2023-08-20T22:20:54.865Z,74361.88
2023-08-20T22:23:21.688Z,74357.75
2023-08-20T22:25:48.454Z,74368.09
2023-08-20T22:28:15.197Z,74384.63
2023-08-20T22:30:42.683Z,74374.28
2023-08-20T22:33:09.725Z,74390.81
2023-08-20T22:35:36.547Z,74384.63
2023-08-20T22:38:06.589Z,74392.88
2023-08-20T22:40:34.714Z,74390.81
2023-08-20T22:43:01.606Z,74390.81
2023-08-20T22:45:28.919Z,74399.09
2023-08-20T22:48:00.163Z,74403.22
2023-08-20T22:50:28.126Z,74401.16
2023-08-20T22:52:57.957Z,74407.34
2023-08-20T22:55:25.589Z,74411.50
2023-08-20T22:57:53.764Z,74428.03
2023-08-20T23:00:21.260Z,74456.97
2023-08-20T23:02:48.139Z,74465.22
2023-08-20T23:05:14.902Z,74473.50
2023-08-20T23:07:42.399Z,74473.50
2023-08-20T23:10:10.268Z,74475.56
2023-08-20T23:12:37.661Z,74485.91
2023-08-20T23:15:07.922Z,74490.03
2023-08-20T23:17:34.865Z,74483.84
2023-08-20T23:20:01.992Z,74481.78
2023-08-20T23:22:28.890Z,74481.78
2023-08-20T23:24:55.673Z,74477.63
2023-08-20T23:27:22.496Z,74469.38
2023-08-20T23:29:49.188Z,74469.38
2023-08-20T23:32:16.114Z,74467.31
2023-08-20T23:34:42.796Z,74469.38
2023-08-20T23:37:11.258Z,74463.16
2023-08-20T23:39:38.216Z,74450.75
2023-08-20T23:42:05.129Z,74461.09
2023-08-20T23:44:32.194Z,74448.69
2023-08-20T23:46:58.958Z,74442.50
2023-08-20T23:49:25.708Z,74446.63
2023-08-20T23:51:52.447Z,74438.38
2023-08-20T23:54:19.251Z,74440.44
2023-08-20T23:56:46.060Z,74432.16
2023-08-20T23:59:12.770Z,74430.09
